createdAt,value
2022-08-10T00:01:36.562Z,23.10
2022-08-10T00:04:06.346Z,23.00
2022-08-10T00:06:34.469Z,23.00
2022-08-10T00:09:02.231Z,22.90
2022-08-10T00:11:30.067Z,22.90
2022-08-10T00:13:58.022Z,22.90
2022-08-10T00:16:28.618Z,22.70
2022-08-10T00:18:56.443Z,22.70
2022-08-10T00:21:27.307Z,22.70
2022-08-10T00:23:55.248Z,22.70
2022-08-10T00:26:22.991Z,22.70
2022-08-10T00:28:50.783Z,22.60
2022-08-10T00:31:18.512Z,22.70
2022-08-10T00:33:46.297Z,22.60
2022-08-10T00:36:14.199Z,22.60
2022-08-10T00:38:43.316Z,22.50
2022-08-10T00:41:11.131Z,22.50
2022-08-10T00:43:38.883Z,22.40
2022-08-10T00:46:06.762Z,22.30
2022-08-10T00:48:34.538Z,22.30
2022-08-10T00:51:02.705Z,22.20
2022-08-10T00:53:30.616Z,22.20
2022-08-10T00:56:34.865Z,22.20
2022-08-10T00:58:48.486Z,22.20
2022-08-10T01:01:23.525Z,22.00
2022-08-10T01:04:54.239Z,21.90
2022-08-10T01:07:06.533Z,21.90
2022-08-10T01:09:44.401Z,22.00
2022-08-10T01:12:40.963Z,21.90
2022-08-10T01:15:15.394Z,21.90
2022-08-10T01:17:51.641Z,21.90
2022-08-10T01:20:31.194Z,21.80
2022-08-10T01:23:48.886Z,21.80
2022-08-10T01:26:37.211Z,21.70
2022-08-10T01:29:40.174Z,21.70
2022-08-10T01:32:10.380Z,21.80
2022-08-10T01:34:45.339Z,21.80
2022-08-10T01:37:15.811Z,21.70
2022-08-10T01:39:48.219Z,21.60
2022-08-10T01:42:19.861Z,21.60
2022-08-10T01:44:53.774Z,21.60
2022-08-10T01:47:43.975Z,21.60
2022-08-10T01:50:22.809Z,21.70
2022-08-10T01:52:53.372Z,21.70
2022-08-10T01:55:21.982Z,21.60
2022-08-10T01:57:51.959Z,21.50
2022-08-10T02:00:21.325Z,21.50
2022-08-10T02:02:51.531Z,21.50
2022-08-10T02:05:21.139Z,21.50
2022-08-10T02:07:51.384Z,21.50
2022-08-10T02:10:20.345Z,21.40
2022-08-10T02:12:48.683Z,21.30
2022-08-10T02:15:20.356Z,21.20
2022-08-10T02:18:00.668Z,21.10
2022-08-10T02:20:34.613Z,21.10
2022-08-10T02:23:06.200Z,21.10
2022-08-10T02:25:41.327Z,21.00
2022-08-10T02:28:30.245Z,21.00
2022-08-10T02:31:01.730Z,20.90
2022-08-10T02:33:31.484Z,20.90
2022-08-10T02:36:02.859Z,20.90
2022-08-10T02:38:57.503Z,20.90
2022-08-10T02:42:18.117Z,20.90
2022-08-10T02:45:20.001Z,20.90
2022-08-10T02:47:19.194Z,20.90
2022-08-10T02:49:52.555Z,20.80
2022-08-10T02:52:25.851Z,20.80
2022-08-10T02:54:56.672Z,20.70
2022-08-10T02:58:13.318Z,20.70
2022-08-10T03:00:28.359Z,20.60
2022-08-10T03:02:58.622Z,20.60
2022-08-10T03:05:29.318Z,20.60
2022-08-10T03:08:03.030Z,20.50
2022-08-10T03:10:33.929Z,20.50
2022-08-10T03:13:05.158Z,20.40
2022-08-10T03:15:35.036Z,20.30
2022-08-10T03:18:04.025Z,20.30
2022-08-10T03:20:40.572Z,20.30
2022-08-10T03:23:12.676Z,20.20
2022-08-10T03:25:41.334Z,20.20
2022-08-10T03:28:23.323Z,20.20
2022-08-10T03:30:51.630Z,20.10
2022-08-10T03:33:21.428Z,20.00
2022-08-10T03:36:41.560Z,20.00
2022-08-10T03:38:40.345Z,20.00
2022-08-10T03:41:16.242Z,20.00
2022-08-10T03:43:45.617Z,19.90
2022-08-10T03:46:15.360Z,19.90
2022-08-10T03:48:49.396Z,19.80
2022-08-10T03:51:20.855Z,19.80
2022-08-10T03:54:03.587Z,19.80
2022-08-10T03:56:34.727Z,19.70
2022-08-10T03:59:03.240Z,19.70
2022-08-10T04:02:41.490Z,19.80
2022-08-10T04:04:24.308Z,19.80
2022-08-10T04:06:55.741Z,19.70
2022-08-10T04:09:24.984Z,19.60
2022-08-10T04:12:11.588Z,19.50
2022-08-10T04:14:49.548Z,19.70
2022-08-10T04:17:18.374Z,19.80
2022-08-10T04:20:08.903Z,19.80
2022-08-10T04:22:41.132Z,19.70
2022-08-10T04:25:11.320Z,19.70
2022-08-10T04:27:39.143Z,19.70
2022-08-10T04:30:08.234Z,19.70
2022-08-10T04:32:37.721Z,19.70
2022-08-10T04:35:10.050Z,19.60
2022-08-10T04:37:46.924Z,19.60
2022-08-10T04:40:25.325Z,19.60
2022-08-10T04:43:01.304Z,19.60
2022-08-10T04:45:49.081Z,19.60
2022-08-10T04:48:42.365Z,19.60
2022-08-10T04:51:11.050Z,19.70
2022-08-10T04:54:06.125Z,19.70
2022-08-10T04:56:35.582Z,19.70
2022-08-10T04:59:03.358Z,19.70
2022-08-10T05:02:13.551Z,19.70
2022-08-10T05:04:34.747Z,19.80
2022-08-10T05:07:08.404Z,19.90
2022-08-10T05:10:03.583Z,20.00
2022-08-10T05:12:25.783Z,20.00
2022-08-10T05:14:54.626Z,20.10
2022-08-10T05:17:23.024Z,20.10
2022-08-10T05:20:05.073Z,20.30
2022-08-10T05:22:35.571Z,20.50
2022-08-10T05:25:06.182Z,20.70
2022-08-10T05:27:34.558Z,20.80
2022-08-10T05:30:03.536Z,20.90
2022-08-10T05:32:32.171Z,21.00
2022-08-10T05:35:00.040Z,21.20
2022-08-10T05:38:09.459Z,21.30
2022-08-10T05:40:19.962Z,21.60
2022-08-10T05:42:47.755Z,21.70
2022-08-10T05:45:21.375Z,21.70
2022-08-10T05:48:57.047Z,21.80
2022-08-10T05:50:37.258Z,21.90
2022-08-10T05:53:23.170Z,21.90
2022-08-10T05:55:55.062Z,22.10
2022-08-10T05:58:23.018Z,22.20
2022-08-10T06:00:55.226Z,22.30
2022-08-10T06:03:27.928Z,22.50
2022-08-10T06:05:56.519Z,22.60
2022-08-10T06:08:28.309Z,22.70
2022-08-10T06:12:16.477Z,22.80
2022-08-10T06:14:13.766Z,22.90
2022-08-10T06:16:44.636Z,22.80
2022-08-10T06:19:15.150Z,23.00
2022-08-10T06:22:00.353Z,23.10
2022-08-10T06:24:31.206Z,23.10
2022-08-10T06:27:00.962Z,23.30
2022-08-10T06:29:33.139Z,23.50
2022-08-10T06:32:02.790Z,23.70
2022-08-10T06:34:34.808Z,23.90
2022-08-10T06:37:04.720Z,24.00
2022-08-10T06:39:35.340Z,24.00
2022-08-10T06:42:15.966Z,24.20
2022-08-10T06:44:52.032Z,23.80
2022-08-10T06:47:23.063Z,24.10
2022-08-10T06:49:59.951Z,24.40
2022-08-10T06:52:32.319Z,24.40
2022-08-10T06:55:01.356Z,24.80
2022-08-10T06:57:36.808Z,24.60
2022-08-10T07:00:07.676Z,24.80
2022-08-10T07:02:42.297Z,25.20
2022-08-10T07:05:14.532Z,25.20
2022-08-10T07:07:44.840Z,25.10
2022-08-10T07:10:14.430Z,25.30
2022-08-10T07:12:45.559Z,25.40
2022-08-10T07:15:14.552Z,25.70
2022-08-10T07:17:42.867Z,26.00
2022-08-10T07:20:12.110Z,26.00
2022-08-10T07:23:01.437Z,26.00
2022-08-10T07:25:31.092Z,26.20
2022-08-10T07:28:02.381Z,26.60
2022-08-10T07:30:32.038Z,26.80
2022-08-10T07:33:02.274Z,27.00
2022-08-10T07:35:41.776Z,26.80
2022-08-10T07:38:17.990Z,26.90
2022-08-10T07:40:47.772Z,27.20
2022-08-10T07:43:17.962Z,27.30
2022-08-10T07:45:47.171Z,27.30
2022-08-10T07:48:17.203Z,27.50
2022-08-10T07:50:46.342Z,26.80
2022-08-10T07:53:20.105Z,27.10
2022-08-10T07:56:04.416Z,27.40
2022-08-10T07:58:46.397Z,27.60
2022-08-10T08:01:22.310Z,26.80
2022-08-10T08:04:11.004Z,27.50
2022-08-10T08:06:39.195Z,27.70
2022-08-10T08:09:07.503Z,27.80
2022-08-10T08:11:37.448Z,27.90
2022-08-10T08:14:08.566Z,28.00
2022-08-10T08:16:38.478Z,28.30
2022-08-10T08:19:28.048Z,28.10
2022-08-10T08:24:05.949Z,28.50
2022-08-10T08:24:44.994Z,28.80
2022-08-10T08:27:16.752Z,29.00
2022-08-10T08:29:48.812Z,29.20
2022-08-10T08:32:19.349Z,29.20
2022-08-10T08:34:49.911Z,29.30
2022-08-10T08:38:32.555Z,29.40
2022-08-10T08:40:14.542Z,29.10
2022-08-10T08:43:31.494Z,29.60
2022-08-10T08:46:52.670Z,29.40
2022-08-10T08:50:08.951Z,29.50
2022-08-10T08:52:40.439Z,29.50
2022-08-10T08:56:04.022Z,29.70
2022-08-10T08:58:28.259Z,29.40
2022-08-10T09:01:06.375Z,29.10
2022-08-10T09:03:55.365Z,28.70
2022-08-10T09:06:53.771Z,29.20
2022-08-10T09:09:36.495Z,29.10
2022-08-10T09:12:20.940Z,29.30
2022-08-10T09:14:54.400Z,29.70
2022-08-10T09:17:32.308Z,30.00
2022-08-10T09:20:08.809Z,30.30
2022-08-10T09:22:47.887Z,30.20
2022-08-10T09:25:19.438Z,30.30
2022-08-10T09:27:50.127Z,30.40
2022-08-10T09:30:38.452Z,30.70
2022-08-10T09:36:21.067Z,30.90
2022-08-10T09:36:27.823Z,31.00
2022-08-10T09:40:46.284Z,30.90
2022-08-10T09:42:19.411Z,30.80
2022-08-10T09:44:58.833Z,30.20
2022-08-10T09:47:58.840Z,30.40
2022-08-10T09:51:16.446Z,30.70
2022-08-10T09:53:36.088Z,31.00
2022-08-10T09:56:21.413Z,30.90
2022-08-10T09:59:26.902Z,30.70
2022-08-10T10:02:02.935Z,31.10
2022-08-10T10:04:43.976Z,30.70
2022-08-10T10:07:19.561Z,31.00
2022-08-10T10:09:56.284Z,31.10
2022-08-10T10:12:37.186Z,31.10
2022-08-10T10:15:25.313Z,30.90
2022-08-10T10:18:18.331Z,31.20
2022-08-10T10:20:55.383Z,30.90
2022-08-10T10:23:33.732Z,31.20
2022-08-10T10:26:18.339Z,31.20
2022-08-10T10:29:24.854Z,31.30
2022-08-10T10:31:56.656Z,31.00
2022-08-10T10:34:35.921Z,30.80
2022-08-10T10:37:07.276Z,31.20
2022-08-10T10:39:37.357Z,31.30
2022-08-10T10:42:42.365Z,31.50
2022-08-10T10:45:17.420Z,31.20
2022-08-10T10:48:02.694Z,31.20
2022-08-10T10:50:39.858Z,30.20
2022-08-10T10:53:18.028Z,31.30
2022-08-10T10:56:14.295Z,31.60
2022-08-10T10:58:49.833Z,31.60
2022-08-10T11:01:34.327Z,31.90
2022-08-10T11:04:17.065Z,31.90
2022-08-10T11:06:53.655Z,31.70
2022-08-10T11:10:03.499Z,31.60
2022-08-10T11:12:27.518Z,31.40
2022-08-10T11:15:04.040Z,31.70
2022-08-10T11:17:35.721Z,30.80
2022-08-10T11:20:12.959Z,31.60
2022-08-10T11:22:49.454Z,31.40
2022-08-10T11:25:23.416Z,31.80
2022-08-10T11:27:58.012Z,32.00
2022-08-10T11:30:30.279Z,32.10
2022-08-10T11:33:32.851Z,32.10
2022-08-10T11:36:06.223Z,32.40
2022-08-10T11:39:11.106Z,32.60
2022-08-10T11:42:10.367Z,32.80
2022-08-10T11:44:34.536Z,32.30
2022-08-10T11:47:08.376Z,32.40
2022-08-10T11:49:46.373Z,32.40
2022-08-10T11:52:21.028Z,32.00
2022-08-10T11:54:55.288Z,32.00
2022-08-10T11:57:55.039Z,31.80
2022-08-10T12:00:17.530Z,32.10
2022-08-10T12:02:47.726Z,32.10
2022-08-10T12:05:24.080Z,32.20
2022-08-10T12:10:10.939Z,32.10
2022-08-10T12:11:01.703Z,32.30
2022-08-10T12:13:37.355Z,32.10
2022-08-10T12:16:09.231Z,32.30
2022-08-10T12:18:46.758Z,32.60
2022-08-10T12:21:22.324Z,32.70
2022-08-10T12:24:02.520Z,32.90
2022-08-10T12:26:37.094Z,33.10
2022-08-10T12:29:11.998Z,33.00
2022-08-10T12:31:44.185Z,32.70
2022-08-10T12:34:21.727Z,32.60
2022-08-10T12:37:01.816Z,32.30
2022-08-10T12:39:35.156Z,32.50
2022-08-10T12:42:10.257Z,32.80
2022-08-10T12:44:46.735Z,32.20
2022-08-10T12:47:23.120Z,32.50
2022-08-10T12:50:30.183Z,32.60
2022-08-10T12:52:52.579Z,32.80
2022-08-10T12:55:22.022Z,33.00
2022-08-10T12:57:55.295Z,33.00
2022-08-10T13:00:30.030Z,32.70
2022-08-10T13:02:59.508Z,32.40
2022-08-10T13:05:29.470Z,32.20
2022-08-10T13:08:38.760Z,32.30
2022-08-10T13:12:34.196Z,32.20
2022-08-10T13:14:02.944Z,32.30
2022-08-10T13:16:33.248Z,32.40
2022-08-10T13:19:04.560Z,32.40
2022-08-10T13:21:38.980Z,32.60
2022-08-10T13:24:13.591Z,32.60
2022-08-10T13:27:23.600Z,32.30
2022-08-10T13:29:40.212Z,32.20
2022-08-10T13:32:11.178Z,32.30
2022-08-10T13:34:45.291Z,32.30
2022-08-10T13:37:16.824Z,32.40
2022-08-10T13:39:57.815Z,32.20
2022-08-10T13:42:32.455Z,32.30
2022-08-10T13:45:09.142Z,32.10
2022-08-10T13:47:49.751Z,32.20
2022-08-10T13:50:33.690Z,32.20
2022-08-10T13:53:13.885Z,32.30
2022-08-10T13:55:53.997Z,32.30
2022-08-10T13:58:27.469Z,32.30
2022-08-10T14:00:57.310Z,32.10
2022-08-10T14:03:26.732Z,32.00
2022-08-10T14:05:56.863Z,32.10
2022-08-10T14:08:28.633Z,32.40
2022-08-10T14:11:11.198Z,32.30
2022-08-10T14:13:45.408Z,32.60
2022-08-10T14:16:14.720Z,32.40
2022-08-10T14:18:45.834Z,32.40
2022-08-10T14:21:14.739Z,32.40
2022-08-10T14:23:52.083Z,32.40
2022-08-10T14:26:24.719Z,32.70
2022-08-10T14:28:55.854Z,32.30
2022-08-10T14:31:26.981Z,32.50
2022-08-10T14:33:58.920Z,32.80
2022-08-10T14:36:33.216Z,32.70
2022-08-10T14:39:03.648Z,32.90
2022-08-10T14:42:04.399Z,32.50
2022-08-10T14:44:26.143Z,32.20
2022-08-10T14:46:58.390Z,32.60
2022-08-10T14:49:27.548Z,32.70
2022-08-10T14:52:01.340Z,33.00
2022-08-10T14:54:32.305Z,33.00
2022-08-10T14:57:11.219Z,33.10
2022-08-10T15:00:26.152Z,32.90
2022-08-10T15:02:40.520Z,33.10
2022-08-10T15:05:19.448Z,33.00
2022-08-10T15:07:59.166Z,33.00
2022-08-10T15:10:28.998Z,33.10
2022-08-10T15:12:59.289Z,33.00
2022-08-10T15:15:31.318Z,32.90
2022-08-10T15:18:18.830Z,33.00
2022-08-10T15:20:58.019Z,32.90
2022-08-10T15:23:31.302Z,33.10
2022-08-10T15:26:10.879Z,32.90
2022-08-10T15:29:23.048Z,32.70
2022-08-10T15:31:55.743Z,32.80
2022-08-10T15:34:43.010Z,32.90
2022-08-10T15:37:39.892Z,32.90
2022-08-10T15:40:25.359Z,32.30
2022-08-10T15:43:05.685Z,32.40
2022-08-10T15:45:56.755Z,32.40
2022-08-10T15:48:25.967Z,32.50
2022-08-10T15:51:01.681Z,32.60
2022-08-10T15:53:48.966Z,32.60
2022-08-10T15:56:28.172Z,32.50
2022-08-10T15:59:08.398Z,32.90
2022-08-10T16:02:14.048Z,32.90
2022-08-10T16:04:37.763Z,33.00
2022-08-10T16:07:09.193Z,33.00
2022-08-10T16:10:23.851Z,32.70
2022-08-10T16:12:35.929Z,32.70
2022-08-10T16:15:08.090Z,32.70
2022-08-10T16:17:55.604Z,32.70
2022-08-10T16:20:31.276Z,32.40
2022-08-10T16:23:04.311Z,32.50
2022-08-10T16:25:48.166Z,32.50
2022-08-10T16:28:23.642Z,32.50
2022-08-10T16:30:54.179Z,32.50
2022-08-10T16:33:27.548Z,32.30
2022-08-10T16:36:18.525Z,32.30
2022-08-10T16:38:49.399Z,32.20
2022-08-10T16:42:00.201Z,32.20
2022-08-10T16:44:11.677Z,32.00
2022-08-10T16:46:44.786Z,31.90
2022-08-10T16:49:15.136Z,32.00
2022-08-10T16:51:47.672Z,32.00
2022-08-10T16:54:18.222Z,32.10
2022-08-10T16:56:49.101Z,32.00
2022-08-10T16:59:21.158Z,31.90
2022-08-10T17:01:54.248Z,32.10
2022-08-10T17:04:25.944Z,32.20
2022-08-10T17:06:56.952Z,32.20
2022-08-10T17:09:28.764Z,32.10
2022-08-10T17:11:58.250Z,32.00
2022-08-10T17:14:29.408Z,32.20
2022-08-10T17:17:01.314Z,32.10
2022-08-10T17:19:38.039Z,32.00
2022-08-10T17:22:11.746Z,31.90
2022-08-10T17:24:47.365Z,31.70
2022-08-10T17:28:04.277Z,31.70
2022-08-10T17:30:15.596Z,31.70
2022-08-10T17:32:50.612Z,31.50
2022-08-10T17:35:23.630Z,31.40
2022-08-10T17:37:57.670Z,31.40
2022-08-10T17:40:28.644Z,31.40
2022-08-10T17:42:58.882Z,31.30
2022-08-10T17:45:47.933Z,31.40
2022-08-10T17:48:19.070Z,31.40
2022-08-10T17:50:51.151Z,31.30
2022-08-10T17:53:23.448Z,31.20
2022-08-10T17:55:56.431Z,31.10
2022-08-10T17:58:27.165Z,31.10
2022-08-10T18:01:38.654Z,31.10
2022-08-10T18:03:53.528Z,31.10
2022-08-10T18:06:23.735Z,30.90
2022-08-10T18:08:56.650Z,31.00
2022-08-10T18:11:29.496Z,30.90
2022-08-10T18:14:02.637Z,30.90
2022-08-10T18:16:33.239Z,30.90
2022-08-10T18:19:07.682Z,30.90
2022-08-10T18:21:41.378Z,30.90
2022-08-10T18:24:16.354Z,30.80
2022-08-10T18:26:46.823Z,30.80
2022-08-10T18:29:19.395Z,30.70
2022-08-10T18:31:49.745Z,30.70
2022-08-10T18:34:20.810Z,30.30
2022-08-10T18:36:53.129Z,30.40
2022-08-10T18:39:25.171Z,30.30
2022-08-10T18:42:00.227Z,30.20
2022-08-10T18:44:37.384Z,30.10
2022-08-10T18:47:11.113Z,30.10
2022-08-10T18:49:51.207Z,30.20
2022-08-10T18:52:23.594Z,30.20
2022-08-10T18:54:54.391Z,30.00
2022-08-10T18:57:37.137Z,29.90
2022-08-10T19:00:09.480Z,29.80
2022-08-10T19:03:18.966Z,29.60
2022-08-10T19:06:10.587Z,29.50
2022-08-10T19:09:46.347Z,29.50
2022-08-10T19:12:31.026Z,29.30
2022-08-10T19:15:09.812Z,29.40
2022-08-10T19:18:06.148Z,29.20
2022-08-10T19:20:40.479Z,29.20
2022-08-10T19:23:26.918Z,29.00
2022-08-10T19:26:32.944Z,28.90
2022-08-10T19:29:05.914Z,28.80
2022-08-10T19:31:44.831Z,28.80
2022-08-10T19:34:29.807Z,28.90
2022-08-10T19:37:08.223Z,28.80
2022-08-10T19:39:59.945Z,28.80
2022-08-10T19:42:35.553Z,28.60
2022-08-10T19:45:55.452Z,28.60
2022-08-10T19:48:11.902Z,28.50
2022-08-10T19:50:45.719Z,28.40
2022-08-10T19:53:24.948Z,28.40
2022-08-10T19:56:24.331Z,28.30
2022-08-10T19:59:03.895Z,28.20
2022-08-10T20:01:54.352Z,28.20
2022-08-10T20:04:28.818Z,28.20
2022-08-10T20:07:06.399Z,28.20
2022-08-10T20:09:42.638Z,28.20
2022-08-10T20:12:16.441Z,28.10
2022-08-10T20:14:52.869Z,28.00
2022-08-10T20:17:29.075Z,27.90
2022-08-10T20:20:24.003Z,27.80
2022-08-10T20:23:06.060Z,27.70
2022-08-10T20:25:34.746Z,27.70
2022-08-10T20:28:11.033Z,27.70
2022-08-10T20:30:46.493Z,27.70
2022-08-10T20:33:19.423Z,27.50
2022-08-10T20:35:53.306Z,27.40
2022-08-10T20:38:29.409Z,27.50
2022-08-10T20:41:07.163Z,27.30
2022-08-10T20:43:41.966Z,27.30
2022-08-10T20:46:20.562Z,27.20
2022-08-10T20:48:57.575Z,27.20
2022-08-10T20:51:59.405Z,27.10
2022-08-10T20:54:21.282Z,27.10
2022-08-10T20:57:02.439Z,27.00
2022-08-10T21:00:04.704Z,26.90
2022-08-10T21:02:55.579Z,26.80
2022-08-10T21:05:31.389Z,26.90
2022-08-10T21:08:14.381Z,26.90
2022-08-10T21:10:58.997Z,26.80
2022-08-10T21:13:45.119Z,26.70
2022-08-10T21:16:29.924Z,26.60
2022-08-10T21:19:29.999Z,26.60
2022-08-10T21:22:13.078Z,26.50
2022-08-10T21:24:52.324Z,26.60
2022-08-10T21:27:33.737Z,26.40
2022-08-10T21:30:09.279Z,26.30
2022-08-10T21:32:51.001Z,26.30
2022-08-10T21:35:36.466Z,26.10
2022-08-10T21:38:11.949Z,26.00
2022-08-10T21:41:18.257Z,25.90
2022-08-10T21:44:24.497Z,25.80
2022-08-10T21:47:31.037Z,25.70
2022-08-10T21:50:27.354Z,25.70
2022-08-10T21:53:21.800Z,25.60
2022-08-10T21:56:35.865Z,25.40
2022-08-10T21:59:26.347Z,25.40
2022-08-10T22:02:15.126Z,25.30
2022-08-10T22:05:00.665Z,25.20
2022-08-10T22:07:48.267Z,25.30
2022-08-10T22:10:39.174Z,25.20
2022-08-10T22:13:25.995Z,25.10
2022-08-10T22:16:15.262Z,25.00
2022-08-10T22:19:04.297Z,25.00
2022-08-10T22:22:19.718Z,25.00
2022-08-10T22:25:28.883Z,24.90
2022-08-10T22:28:18.093Z,24.90
2022-08-10T22:31:29.907Z,24.80
2022-08-10T22:34:24.368Z,24.70
2022-08-10T22:37:23.971Z,24.70
2022-08-10T22:40:19.106Z,24.60
2022-08-10T22:43:10.891Z,24.60
2022-08-10T22:46:05.459Z,24.60
2022-08-10T22:48:59.213Z,24.40
2022-08-10T22:51:34.792Z,24.20
2022-08-10T22:54:31.039Z,24.20
2022-08-10T22:57:18.743Z,24.10
2022-08-10T22:59:46.594Z,24.20
2022-08-10T23:02:27.795Z,24.20
2022-08-10T23:04:59.849Z,24.20
2022-08-10T23:07:31.251Z,24.00
2022-08-10T23:10:02.452Z,24.00
2022-08-10T23:12:36.732Z,23.90
2022-08-10T23:15:25.556Z,24.00
2022-08-10T23:18:16.118Z,23.90
2022-08-10T23:20:45.393Z,23.90
2022-08-10T23:23:23.905Z,23.80
2022-08-10T23:25:56.693Z,23.70
2022-08-10T23:28:58.214Z,23.70
2022-08-10T23:31:15.832Z,23.70
2022-08-10T23:33:46.697Z,23.50
2022-08-10T23:36:34.351Z,23.50
2022-08-10T23:39:25.728Z,23.50
2022-08-10T23:42:04.850Z,23.50
2022-08-10T23:44:42.527Z,23.30
2022-08-10T23:47:12.442Z,23.30
2022-08-10T23:49:43.206Z,23.30
2022-08-10T23:52:13.815Z,23.30
2022-08-10T23:54:47.847Z,23.30
2022-08-10T23:57:19.297Z,23.30
2022-08-10T23:59:51.947Z,23.20
